createdAt,value
2019-03-17T00:03:28.232Z,32.93
2019-03-17T00:07:37.460Z,34.73
2019-03-17T00:11:43.840Z,34.40
2019-03-17T00:15:50.443Z,33.80
2019-03-17T00:20:19.180Z,35.87
2019-03-17T00:24:26.606Z,27.00
2019-03-17T00:28:34.238Z,26.57
2019-03-17T00:32:40.596Z,33.13
2019-03-17T00:36:46.883Z,35.17
2019-03-17T00:40:53.956Z,43.13
2019-03-17T00:45:01.965Z,45.17
2019-03-17T00:49:09.323Z,34.47
2019-03-17T00:53:16.959Z,33.23
2019-03-17T00:57:23.384Z,31.60
2019-03-17T01:01:29.763Z,41.30
2019-03-17T01:05:37.925Z,41.83
2019-03-17T01:09:44.263Z,35.10
2019-03-17T01:13:50.667Z,33.60
2019-03-17T01:18:19.437Z,42.30
2019-03-17T01:22:27.095Z,39.43
2019-03-17T01:31:21.447Z,45.27
2019-03-17T01:35:28.576Z,42.77
2019-03-17T01:39:36.028Z,36.37
2019-03-17T01:43:42.448Z,39.30
2019-03-17T01:47:48.848Z,36.93
2019-03-17T01:51:54.757Z,40.30
2019-03-17T01:56:06.582Z,29.93
2019-03-17T02:00:14.879Z,31.03
2019-03-17T02:04:21.432Z,27.67
2019-03-17T02:08:28.356Z,27.83
2019-03-17T02:12:38.149Z,32.37
2019-03-17T02:16:45.793Z,31.77
2019-03-17T02:24:59.286Z,35.20
2019-03-17T02:29:06.749Z,33.87
2019-03-17T02:33:14.281Z,33.33
2019-03-17T02:37:20.640Z,30.07
2019-03-17T02:41:27.319Z,29.83
2019-03-17T02:45:35.058Z,35.23
2019-03-17T02:49:42.782Z,29.67
2019-03-17T02:53:49.319Z,30.90
2019-03-17T02:57:56.951Z,30.93
2019-03-17T03:02:03.397Z,30.00
2019-03-17T03:06:10.151Z,26.13
2019-03-17T03:10:37.621Z,29.63
2019-03-17T03:14:44.215Z,35.73
2019-03-17T03:18:50.823Z,34.37
2019-03-17T03:22:57.258Z,31.47
2019-03-17T03:27:03.611Z,34.27
2019-03-17T03:31:10.536Z,31.33
2019-03-17T03:35:20.653Z,35.03
2019-03-17T03:39:27.088Z,34.60
2019-03-17T03:43:35.695Z,36.27
2019-03-17T03:47:43.545Z,35.23
2019-03-17T03:51:50.476Z,37.93
2019-03-17T03:56:16.322Z,40.10
2019-03-17T04:00:22.842Z,37.57
2019-03-17T04:04:30.421Z,40.17
2019-03-17T04:08:38.717Z,37.67
2019-03-17T04:12:48.786Z,38.57
2019-03-17T04:16:55.167Z,41.43
2019-03-17T04:21:01.559Z,49.60
2019-03-17T04:25:16.462Z,42.00
2019-03-17T04:29:24.225Z,40.77
2019-03-17T04:33:30.650Z,42.43
2019-03-17T04:37:37.005Z,45.90
2019-03-17T04:42:04.372Z,40.20
2019-03-17T04:46:10.673Z,42.80
2019-03-17T04:50:17.051Z,49.97
2019-03-17T04:54:24.399Z,48.67
2019-03-17T04:58:31.659Z,43.07
2019-03-17T05:02:38.272Z,42.83
2019-03-17T05:06:52.464Z,43.70
2019-03-17T05:10:54.850Z,37.93
2019-03-17T05:15:05.674Z,36.80
2019-03-17T05:19:12.000Z,39.20
2019-03-17T05:23:19.330Z,41.97
2019-03-17T05:27:27.164Z,40.03
2019-03-17T05:31:33.590Z,38.47
2019-03-17T05:35:39.852Z,41.67
2019-03-17T05:39:47.017Z,39.27
2019-03-17T05:43:54.191Z,38.67
2019-03-17T05:48:01.540Z,39.90
2019-03-17T05:52:12.210Z,40.90
2019-03-17T05:56:18.550Z,34.90
2019-03-17T06:00:25.442Z,35.70
2019-03-17T06:04:32.907Z,39.97
2019-03-17T06:08:39.218Z,41.57
2019-03-17T06:12:45.607Z,41.97
2019-03-17T06:17:00.210Z,37.53
2019-03-17T06:21:10.703Z,40.30
2019-03-17T06:25:18.908Z,36.47
2019-03-17T06:29:25.319Z,44.90
2019-03-17T06:33:34.549Z,39.70
2019-03-17T06:37:41.859Z,42.23
2019-03-17T06:41:48.236Z,38.73
2019-03-17T06:45:55.711Z,40.47
2019-03-17T06:50:06.553Z,36.07
2019-03-17T06:54:13.140Z,40.77
2019-03-17T06:58:19.439Z,36.10
2019-03-17T07:02:27.123Z,37.47
2019-03-17T07:06:38.195Z,40.83
2019-03-17T07:10:46.314Z,42.20
2019-03-17T07:14:52.580Z,39.50
2019-03-17T07:18:59.434Z,38.70
2019-03-17T07:23:09.076Z,37.47
2019-03-17T07:27:18.419Z,40.27
2019-03-17T07:31:27.976Z,38.30
2019-03-17T07:35:34.701Z,34.77
2019-03-17T07:39:43.327Z,31.07
2019-03-17T07:43:50.675Z,30.17
2019-03-17T07:47:57.163Z,30.63
2019-03-17T07:52:03.589Z,28.03
2019-03-17T07:56:10.872Z,31.43
2019-03-17T08:00:31.246Z,28.67
2019-03-17T08:04:41.623Z,29.03
2019-03-17T08:08:37.674Z,27.53
2019-03-17T08:12:44.124Z,26.43
2019-03-17T08:16:50.387Z,26.23
2019-03-17T08:20:57.718Z,22.07
2019-03-17T08:25:04.231Z,25.23
2019-03-17T08:29:10.951Z,23.77
2019-03-17T08:33:19.168Z,22.77
2019-03-17T08:37:25.560Z,22.37
2019-03-17T08:41:54.075Z,19.17
2019-03-17T08:46:00.414Z,22.80
2019-03-17T08:50:10.588Z,20.17
2019-03-17T08:54:16.959Z,21.50
2019-03-17T08:58:23.374Z,20.93
2019-03-17T09:03:09.042Z,18.87
2019-03-17T09:07:15.585Z,18.93
2019-03-17T09:11:22.088Z,20.50
2019-03-17T09:15:30.223Z,21.33
2019-03-17T09:19:36.627Z,16.53
2019-03-17T09:23:49.555Z,18.70
2019-03-17T09:27:54.287Z,17.87
2019-03-17T09:32:01.021Z,16.17
2019-03-17T09:36:09.635Z,17.43
2019-03-17T09:40:20.567Z,17.77
2019-03-17T09:44:28.479Z,20.53
2019-03-17T09:48:36.671Z,17.07
2019-03-17T09:52:43.305Z,14.03
2019-03-17T09:56:51.549Z,10.20
2019-03-17T10:00:57.895Z,11.33
2019-03-17T10:05:04.624Z,12.30
2019-03-17T10:09:10.975Z,9.70
2019-03-17T10:13:18.433Z,16.17
2019-03-17T10:17:25.311Z,11.77
2019-03-17T10:21:33.455Z,10.30
2019-03-17T10:25:41.100Z,13.30
2019-03-17T10:29:48.718Z,14.30
2019-03-17T10:33:55.004Z,13.57
2019-03-17T10:38:01.477Z,13.80
2019-03-17T10:42:09.074Z,14.10
2019-03-17T10:46:15.551Z,12.77
2019-03-17T10:50:21.872Z,13.93
2019-03-17T10:54:34.656Z,14.43
2019-03-17T10:58:40.937Z,9.67
2019-03-17T11:02:48.186Z,17.73
2019-03-17T11:07:04.478Z,10.60
2019-03-17T11:11:12.129Z,12.07
2019-03-17T11:15:18.946Z,11.73
2019-03-17T11:23:34.778Z,9.47
2019-03-17T11:27:42.979Z,7.50
2019-03-17T11:31:52.094Z,12.07
2019-03-17T11:35:58.956Z,11.30
2019-03-17T11:40:06.174Z,12.87
2019-03-17T11:44:12.210Z,10.17
2019-03-17T11:48:18.582Z,10.27
2019-03-17T11:52:26.689Z,10.57
2019-03-17T11:56:42.754Z,11.53
2019-03-17T12:00:45.323Z,8.60
2019-03-17T12:04:54.597Z,8.97
2019-03-17T12:09:04.520Z,10.03
2019-03-17T12:13:12.693Z,6.80
2019-03-17T12:17:19.297Z,7.23
2019-03-17T12:21:25.604Z,6.93
2019-03-17T12:25:54.298Z,8.67
2019-03-17T12:30:02.451Z,8.17
2019-03-17T12:34:12.077Z,7.73
2019-03-17T12:38:18.384Z,6.87
2019-03-17T12:42:25.273Z,7.13
2019-03-17T12:46:32.234Z,8.03
2019-03-17T12:50:38.605Z,9.10
2019-03-17T12:54:44.944Z,8.13
2019-03-17T12:58:53.883Z,9.33
2019-03-17T13:03:00.265Z,10.27
2019-03-17T13:07:09.470Z,8.07
2019-03-17T13:11:15.761Z,8.20
2019-03-17T13:15:23.528Z,7.40
2019-03-17T13:19:31.279Z,7.50
2019-03-17T13:23:39.450Z,7.67
2019-03-17T13:27:48.949Z,7.57
2019-03-17T13:31:59.614Z,6.50
2019-03-17T13:36:09.107Z,6.20
2019-03-17T13:40:27.689Z,8.23
2019-03-17T13:44:24.635Z,7.50
2019-03-17T13:48:31.645Z,6.20
2019-03-17T13:52:39.157Z,6.73
2019-03-17T13:56:45.533Z,7.27
2019-03-17T14:00:51.955Z,8.13
2019-03-17T14:05:00.705Z,6.23
2019-03-17T14:09:08.035Z,5.90
2019-03-17T14:13:14.370Z,5.53
2019-03-17T14:17:20.763Z,8.80
2019-03-17T14:21:29.221Z,7.33
2019-03-17T14:25:36.716Z,5.73
2019-03-17T14:29:44.603Z,4.70
2019-03-17T14:33:55.300Z,6.27
2019-03-17T14:38:03.139Z,8.87
2019-03-17T14:42:09.416Z,4.73
2019-03-17T14:46:19.006Z,7.27
2019-03-17T14:50:24.436Z,9.00
2019-03-17T14:54:31.419Z,9.70
2019-03-17T15:03:06.851Z,5.47
2019-03-17T15:07:19.669Z,7.60
2019-03-17T15:11:39.675Z,5.63
2019-03-17T15:15:46.527Z,6.40
2019-03-17T15:19:54.651Z,6.00
2019-03-17T15:24:01.349Z,5.67
2019-03-17T15:28:08.747Z,4.97
2019-03-17T15:32:15.932Z,7.00
2019-03-17T15:36:26.251Z,7.90
2019-03-17T15:40:35.343Z,8.07
2019-03-17T15:44:41.875Z,9.47
2019-03-17T15:48:58.357Z,8.27
2019-03-17T15:53:04.959Z,5.93
2019-03-17T15:57:11.374Z,6.70
2019-03-17T16:01:20.677Z,6.73
2019-03-17T16:05:49.965Z,10.00
2019-03-17T16:09:56.346Z,8.93
2019-03-17T16:18:12.785Z,15.00
2019-03-17T16:22:20.321Z,20.07
2019-03-17T16:26:26.813Z,20.30
2019-03-17T16:30:33.150Z,16.27
2019-03-17T16:34:41.220Z,17.33
2019-03-17T16:38:48.509Z,10.63
2019-03-17T16:42:55.040Z,10.07
2019-03-17T16:47:01.907Z,12.30
2019-03-17T16:51:09.219Z,11.60
2019-03-17T16:55:15.940Z,14.10
2019-03-17T16:59:22.750Z,17.73
2019-03-17T17:03:31.788Z,15.77
2019-03-17T17:07:41.986Z,20.50
2019-03-17T17:11:56.579Z,20.27
2019-03-17T17:16:01.835Z,16.13
2019-03-17T17:20:10.343Z,18.10
2019-03-17T17:24:18.515Z,14.87
2019-03-17T17:28:24.521Z,13.73
2019-03-17T17:32:30.839Z,16.60
2019-03-17T17:36:39.152Z,21.23
2019-03-17T17:40:47.437Z,13.87
2019-03-17T17:44:53.851Z,19.53
2019-03-17T17:49:00.336Z,19.47
2019-03-17T17:53:06.712Z,19.27
2019-03-17T17:57:17.093Z,19.77
2019-03-17T18:01:23.437Z,18.00
2019-03-17T18:05:32.006Z,19.83
2019-03-17T18:09:38.336Z,35.50
2019-03-17T18:13:44.752Z,33.30
2019-03-17T18:17:52.470Z,32.30
2019-03-17T18:21:59.092Z,26.83
2019-03-17T18:26:05.494Z,27.37
2019-03-17T18:30:32.484Z,28.47
2019-03-17T18:34:38.972Z,22.50
2019-03-17T18:38:46.721Z,22.00
2019-03-17T18:42:53.478Z,22.93
2019-03-17T18:47:05.831Z,27.90
2019-03-17T18:51:32.513Z,28.37
2019-03-17T18:55:39.460Z,29.47
2019-03-17T18:59:45.765Z,33.23
2019-03-17T19:04:14.094Z,32.03
2019-03-17T19:08:20.502Z,36.67
2019-03-17T19:12:26.890Z,38.63
2019-03-17T19:16:36.250Z,44.07
2019-03-17T19:20:42.676Z,40.83
2019-03-17T19:24:49.102Z,50.17
2019-03-17T19:28:55.926Z,52.30
2019-03-17T19:33:04.540Z,46.40
2019-03-17T19:37:12.313Z,43.30
2019-03-17T19:41:19.516Z,46.00
2019-03-17T19:45:27.906Z,46.00
2019-03-17T19:49:34.307Z,42.10
2019-03-17T19:53:41.320Z,40.03
2019-03-17T19:57:47.773Z,43.73
2019-03-17T20:01:54.199Z,38.87
2019-03-17T20:06:02.566Z,38.70
2019-03-17T20:10:13.027Z,48.23
2019-03-17T20:14:19.464Z,45.80
2019-03-17T20:18:25.829Z,43.77
2019-03-17T20:22:32.195Z,44.73
2019-03-17T20:26:38.749Z,41.77
2019-03-17T20:30:46.562Z,43.17
2019-03-17T20:34:53.120Z,39.60
2019-03-17T20:38:59.872Z,41.77
2019-03-17T20:43:18.821Z,44.97
2019-03-17T20:47:16.910Z,43.37
2019-03-17T20:52:01.973Z,41.90
2019-03-17T20:56:08.473Z,49.93
2019-03-17T21:00:16.746Z,50.10
2019-03-17T21:04:23.328Z,44.03
2019-03-17T21:08:29.689Z,60.57
2019-03-17T21:12:36.053Z,58.13
2019-03-17T21:16:43.510Z,50.57
2019-03-17T21:20:49.853Z,43.90
2019-03-17T21:24:56.472Z,49.90
2019-03-17T21:29:02.773Z,51.20
2019-03-17T21:33:09.707Z,55.40
2019-03-17T21:37:16.385Z,50.97
2019-03-17T21:41:23.729Z,57.87
2019-03-17T21:45:31.288Z,59.83
2019-03-17T21:49:40.612Z,50.13
2019-03-17T21:53:47.158Z,45.87
2019-03-17T21:57:53.647Z,48.10
2019-03-17T22:02:12.302Z,48.43
2019-03-17T22:06:10.548Z,45.57
2019-03-17T22:10:17.268Z,46.17
2019-03-17T22:14:26.617Z,34.43
2019-03-17T22:18:32.962Z,35.10
2019-03-17T22:22:41.995Z,36.23
2019-03-17T22:26:48.719Z,36.17
2019-03-17T22:30:55.063Z,40.40
2019-03-17T22:35:02.619Z,33.73
2019-03-17T22:39:11.502Z,20.13
2019-03-17T22:43:17.840Z,26.73
2019-03-17T22:47:24.203Z,25.00
2019-03-17T22:51:31.121Z,25.93
2019-03-17T22:55:38.848Z,17.63
2019-03-17T22:59:45.240Z,7.60
2019-03-17T23:03:51.984Z,7.73
2019-03-17T23:08:17.274Z,9.10
2019-03-17T23:12:24.068Z,9.27
2019-03-17T23:16:30.948Z,7.30
2019-03-17T23:20:58.180Z,12.87
2019-03-17T23:25:07.061Z,7.20
2019-03-17T23:29:18.629Z,5.07
2019-03-17T23:33:25.945Z,7.43
2019-03-17T23:37:37.757Z,4.13
2019-03-17T23:41:44.853Z,4.57
2019-03-17T23:45:54.393Z,5.53
2019-03-17T23:50:01.343Z,3.00
2019-03-17T23:54:10.873Z,3.43
2019-03-17T23:58:19.491Z,3.50
